createdAt,value
2019-05-16T00:00:40.151Z,8.67
2019-05-16T00:03:08.036Z,8.69
2019-05-16T00:05:47.719Z,8.73
2019-05-16T00:08:03.735Z,8.78
2019-05-16T00:10:30.505Z,8.75
2019-05-16T00:12:59.533Z,8.80
2019-05-16T00:15:26.038Z,8.74
2019-05-16T00:17:54.733Z,8.76
2019-05-16T00:20:21.607Z,8.75
2019-05-16T00:22:48.594Z,8.78
2019-05-16T00:25:15.358Z,8.85
2019-05-16T00:27:42.192Z,8.86
2019-05-16T00:30:09.541Z,8.93
2019-05-16T00:32:38.707Z,8.99
2019-05-16T00:35:05.828Z,8.90
2019-05-16T00:37:32.565Z,8.92
2019-05-16T00:42:25.184Z,8.87
2019-05-16T00:44:51.965Z,8.92
2019-05-16T00:47:18.664Z,8.92
2019-05-16T00:49:47.824Z,8.90
2019-05-16T00:52:14.177Z,8.98
2019-05-16T00:54:43.630Z,8.98
2019-05-16T00:57:10.786Z,8.93
2019-05-16T00:59:38.171Z,8.98
2019-05-16T01:02:05.007Z,8.94
2019-05-16T01:04:31.962Z,8.94
2019-05-16T01:07:01.682Z,8.99
2019-05-16T01:09:28.262Z,9.02
2019-05-16T01:11:55.417Z,9.03
2019-05-16T01:14:22.078Z,9.08
2019-05-16T01:16:48.928Z,9.10
2019-05-16T01:19:15.736Z,9.05
2019-05-16T01:21:42.444Z,9.08
2019-05-16T01:24:09.147Z,9.05
2019-05-16T01:26:35.924Z,9.02
2019-05-16T01:29:02.606Z,9.13
2019-05-16T01:31:29.274Z,9.10
2019-05-16T01:33:58.292Z,9.03
2019-05-16T01:36:34.236Z,8.99
2019-05-16T01:38:53.369Z,8.99
2019-05-16T01:41:20.156Z,8.99
2019-05-16T01:43:48.365Z,9.01
2019-05-16T01:46:17.858Z,8.97
2019-05-16T01:51:10.250Z,8.97
2019-05-16T01:53:39.292Z,8.97
2019-05-16T01:56:05.661Z,9.10
2019-05-16T01:58:32.423Z,9.17
2019-05-16T02:01:11.650Z,9.13
2019-05-16T02:05:53.801Z,9.15
2019-05-16T02:08:20.463Z,9.17
2019-05-16T02:10:47.853Z,9.20
2019-05-16T02:13:15.101Z,9.14
2019-05-16T02:15:41.958Z,9.16
2019-05-16T02:18:08.719Z,9.17
2019-05-16T02:20:35.202Z,9.26
2019-05-16T02:23:01.703Z,9.21
2019-05-16T02:25:28.550Z,9.21
2019-05-16T02:27:55.223Z,9.19
2019-05-16T02:32:47.791Z,9.12
2019-05-16T02:35:14.564Z,9.17
2019-05-16T02:40:07.705Z,9.18
2019-05-16T02:42:34.577Z,9.29
2019-05-16T02:45:02.310Z,9.32
2019-05-16T02:47:30.916Z,9.26
2019-05-16T02:50:00.992Z,9.31
2019-05-16T02:52:27.031Z,9.28
2019-05-16T02:54:53.754Z,9.26
2019-05-16T02:57:21.233Z,9.32
2019-05-16T02:59:50.904Z,9.33
2019-05-16T03:02:16.887Z,9.34
2019-05-16T03:04:44.414Z,9.36
2019-05-16T03:07:30.288Z,9.36
2019-05-16T03:09:42.482Z,9.32
2019-05-16T03:12:10.747Z,9.29
2019-05-16T03:14:37.870Z,9.33
2019-05-16T03:17:04.791Z,9.14
2019-05-16T03:19:34.747Z,9.21
2019-05-16T03:22:03.763Z,9.28
2019-05-16T03:24:31.101Z,9.29
2019-05-16T03:27:01.313Z,9.29
2019-05-16T03:29:26.881Z,9.32
2019-05-16T03:31:54.850Z,9.35
2019-05-16T03:34:25.106Z,9.38
2019-05-16T03:36:54.411Z,9.40
2019-05-16T03:39:21.219Z,9.38
2019-05-16T03:41:50.565Z,9.40
2019-05-16T03:44:16.360Z,9.49
2019-05-16T03:46:43.042Z,9.48
2019-05-16T03:49:11.396Z,9.51
2019-05-16T03:51:41.220Z,9.56
2019-05-16T03:54:06.938Z,9.42
2019-05-16T03:56:34.802Z,9.52
2019-05-16T03:59:01.493Z,9.56
2019-05-16T04:01:31.118Z,9.59
2019-05-16T04:03:56.906Z,9.64
2019-05-16T04:06:23.713Z,9.73
2019-05-16T04:08:51.234Z,9.71
2019-05-16T04:11:23.041Z,9.74
2019-05-16T04:13:47.087Z,9.76
2019-05-16T04:16:13.869Z,9.79
2019-05-16T04:18:41.948Z,9.66
2019-05-16T04:21:11.812Z,9.68
2019-05-16T04:23:41.677Z,9.71
2019-05-16T04:26:06.785Z,9.79
2019-05-16T04:28:34.262Z,9.75
2019-05-16T04:31:02.219Z,9.78
2019-05-16T04:33:30.950Z,9.81
2019-05-16T04:36:00.882Z,9.82
2019-05-16T04:38:39.642Z,9.76
2019-05-16T04:40:55.226Z,9.68
2019-05-16T04:43:23.040Z,9.74
2019-05-16T04:45:52.285Z,9.84
2019-05-16T04:48:21.822Z,9.76
2019-05-16T04:50:47.079Z,9.77
2019-05-16T04:53:13.781Z,9.79
2019-05-16T04:55:41.982Z,9.81
2019-05-16T04:58:10.609Z,9.90
2019-05-16T05:00:37.569Z,9.94
2019-05-16T05:03:04.543Z,9.89
2019-05-16T05:05:33.388Z,9.91
2019-05-16T05:08:01.518Z,9.92
2019-05-16T05:10:31.262Z,9.93
2019-05-16T05:12:57.329Z,9.95
2019-05-16T05:15:24.105Z,9.99
2019-05-16T05:17:50.948Z,10.04
2019-05-16T05:20:20.836Z,10.05
2019-05-16T05:22:46.465Z,10.06
2019-05-16T05:25:13.324Z,10.05
2019-05-16T05:27:41.279Z,10.13
2019-05-16T05:30:10.743Z,10.18
2019-05-16T05:32:36.864Z,10.11
2019-05-16T05:35:07.170Z,10.22
2019-05-16T05:37:33.859Z,10.23
2019-05-16T05:40:00.565Z,10.25
2019-05-16T05:42:30.654Z,10.27
2019-05-16T05:44:57.106Z,10.26
2019-05-16T05:47:23.832Z,10.28
2019-05-16T05:49:50.745Z,10.40
2019-05-16T05:52:17.434Z,10.36
2019-05-16T05:54:44.126Z,10.45
2019-05-16T05:57:10.889Z,10.47
2019-05-16T05:59:37.599Z,10.52
2019-05-16T06:02:04.313Z,10.47
2019-05-16T06:04:31.168Z,10.50
2019-05-16T06:07:01.175Z,10.48
2019-05-16T06:09:30.035Z,10.50
2019-05-16T06:11:56.468Z,10.67
2019-05-16T06:14:24.177Z,10.77
2019-05-16T06:16:51.064Z,10.77
2019-05-16T06:19:20.048Z,10.81
2019-05-16T06:21:46.601Z,10.82
2019-05-16T06:24:16.317Z,10.94
2019-05-16T06:26:43.186Z,11.07
2019-05-16T06:29:10.615Z,11.16
2019-05-16T06:31:40.632Z,11.10
2019-05-16T06:34:11.411Z,11.22
2019-05-16T06:36:36.165Z,11.22
2019-05-16T06:39:05.602Z,11.31
2019-05-16T06:41:32.402Z,11.35
2019-05-16T06:43:59.940Z,11.46
2019-05-16T06:46:26.809Z,11.59
2019-05-16T06:48:53.627Z,11.58
2019-05-16T06:51:21.484Z,11.69
2019-05-16T06:53:50.032Z,11.81
2019-05-16T06:56:16.980Z,11.96
2019-05-16T06:58:48.274Z,12.17
2019-05-16T07:01:12.479Z,12.42
2019-05-16T07:03:40.087Z,12.53
2019-05-16T07:06:07.110Z,12.49
2019-05-16T07:08:33.864Z,12.53
2019-05-16T07:11:00.627Z,12.63
2019-05-16T07:13:27.382Z,12.67
2019-05-16T07:15:54.132Z,12.67
2019-05-16T07:18:21.428Z,12.59
2019-05-16T07:20:50.726Z,12.69
2019-05-16T07:23:17.215Z,12.62
2019-05-16T07:25:43.980Z,12.56
2019-05-16T07:28:10.867Z,12.59
2019-05-16T07:30:37.681Z,12.63
2019-05-16T07:33:04.930Z,12.64
2019-05-16T07:35:31.368Z,12.64
2019-05-16T07:38:00.606Z,12.50
2019-05-16T07:40:27.812Z,12.61
2019-05-16T07:42:54.960Z,12.62
2019-05-16T07:45:21.702Z,12.66
2019-05-16T07:47:50.664Z,12.61
2019-05-16T07:50:19.979Z,12.77
2019-05-16T07:52:45.426Z,12.72
2019-05-16T07:55:12.207Z,12.51
2019-05-16T07:57:39.871Z,12.23
2019-05-16T08:00:09.655Z,12.16
2019-05-16T08:02:36.611Z,12.32
2019-05-16T08:05:04.661Z,12.26
2019-05-16T08:07:33.665Z,12.19
2019-05-16T08:10:00.088Z,12.23
2019-05-16T08:12:27.276Z,12.25
2019-05-16T08:14:54.419Z,12.28
2019-05-16T08:19:50.620Z,12.37
2019-05-16T08:22:17.757Z,11.94
2019-05-16T08:24:44.448Z,11.91
2019-05-16T08:27:12.237Z,12.00
2019-05-16T08:29:40.444Z,12.10
2019-05-16T08:32:11.205Z,12.40
2019-05-16T08:34:36.024Z,12.53
2019-05-16T08:37:02.871Z,12.65
2019-05-16T08:39:31.039Z,12.64
2019-05-16T08:42:05.358Z,12.80
2019-05-16T08:44:26.786Z,12.82
2019-05-16T08:49:22.398Z,12.87
2019-05-16T08:50:05.719Z,12.38
2019-05-16T08:50:10.798Z,12.81
2019-05-16T08:54:20.707Z,13.04
2019-05-16T08:56:50.788Z,12.91
2019-05-16T08:59:16.170Z,12.91
2019-05-16T09:01:50.630Z,12.96
2019-05-16T09:04:11.994Z,12.99
2019-05-16T09:06:42.419Z,12.98
2019-05-16T09:09:22.304Z,13.01
2019-05-16T09:10:30.561Z,12.88
2019-05-16T09:11:44.087Z,13.01
2019-05-16T09:14:07.717Z,13.06
2019-05-16T09:16:33.465Z,13.08
2019-05-16T09:19:00.299Z,13.03
2019-05-16T09:21:27.610Z,12.99
2019-05-16T09:23:54.459Z,12.95
2019-05-16T09:26:21.175Z,12.97
2019-05-16T09:28:48.363Z,13.00
2019-05-16T09:31:17.843Z,13.14
2019-05-16T09:33:43.881Z,13.13
2019-05-16T09:36:10.614Z,13.06
2019-05-16T09:38:38.308Z,13.09
2019-05-16T09:41:07.849Z,13.06
2019-05-16T09:43:33.861Z,13.05
2019-05-16T09:46:04.009Z,13.18
2019-05-16T09:48:29.434Z,13.24
2019-05-16T09:50:57.702Z,13.41
2019-05-16T09:53:24.638Z,13.48
2019-05-16T09:55:51.399Z,13.44
2019-05-16T09:58:18.632Z,13.45
2019-05-16T10:00:47.302Z,13.44
2019-05-16T10:03:20.115Z,13.47
2019-05-16T10:05:46.498Z,13.51
2019-05-16T10:08:12.782Z,13.26
2019-05-16T10:10:39.502Z,13.37
2019-05-16T10:13:06.830Z,13.44
2019-05-16T10:15:33.671Z,13.48
2019-05-16T10:18:00.444Z,13.63
2019-05-16T10:20:27.462Z,13.77
2019-05-16T10:22:54.400Z,13.51
2019-05-16T10:25:21.252Z,13.59
2019-05-16T10:27:47.973Z,13.67
2019-05-16T10:30:17.646Z,13.74
2019-05-16T10:32:47.183Z,13.63
2019-05-16T10:35:14.980Z,13.69
2019-05-16T10:37:41.636Z,13.74
2019-05-16T10:40:09.347Z,13.64
2019-05-16T10:42:37.960Z,13.85
2019-05-16T10:45:08.628Z,13.96
2019-05-16T10:47:37.084Z,13.89
2019-05-16T10:50:06.452Z,13.78
2019-05-16T10:52:33.109Z,13.80
2019-05-16T10:55:02.464Z,13.78
2019-05-16T10:57:30.079Z,13.71
2019-05-16T11:00:06.696Z,13.69
2019-05-16T11:02:27.524Z,13.64
2019-05-16T11:05:02.852Z,13.82
2019-05-16T11:07:23.160Z,13.77
2019-05-16T11:09:57.943Z,13.82
2019-05-16T11:12:20.430Z,13.79
2019-05-16T11:14:47.899Z,13.82
2019-05-16T11:17:18.813Z,13.79
2019-05-16T11:24:37.570Z,13.70
2019-05-16T11:27:03.687Z,13.65
2019-05-16T11:29:30.361Z,13.44
2019-05-16T11:31:57.428Z,13.47
2019-05-16T11:34:26.502Z,13.23
2019-05-16T11:39:19.058Z,13.18
2019-05-16T11:41:47.540Z,13.11
2019-05-16T11:44:17.414Z,12.96
2019-05-16T11:46:43.244Z,12.95
2019-05-16T11:49:10.238Z,13.03
2019-05-16T11:51:38.358Z,13.05
2019-05-16T11:54:06.907Z,13.14
2019-05-16T11:56:33.840Z,13.17
2019-05-16T11:59:00.534Z,13.15
2019-05-16T12:01:27.727Z,13.19
2019-05-16T12:03:57.342Z,13.07
2019-05-16T12:06:23.301Z,13.04
2019-05-16T12:08:49.992Z,13.14
2019-05-16T12:11:17.842Z,13.19
2019-05-16T12:13:47.410Z,13.17
2019-05-16T12:16:15.605Z,13.17
2019-05-16T12:18:42.091Z,13.13
2019-05-16T12:21:08.787Z,13.17
2019-05-16T12:23:37.452Z,13.16
2019-05-16T12:26:04.483Z,13.10
2019-05-16T12:28:32.115Z,13.13
2019-05-16T12:31:00.308Z,13.13
2019-05-16T12:33:27.610Z,13.09
2019-05-16T12:35:54.470Z,13.19
2019-05-16T12:38:22.054Z,13.17
2019-05-16T12:40:48.962Z,13.14
2019-05-16T12:43:17.787Z,13.10
2019-05-16T12:45:47.120Z,13.01
2019-05-16T12:48:16.740Z,12.97
2019-05-16T12:50:41.959Z,12.77
2019-05-16T12:53:08.725Z,12.74
2019-05-16T12:55:36.867Z,12.81
2019-05-16T12:58:12.552Z,12.86
2019-05-16T13:00:32.279Z,12.95
2019-05-16T13:02:58.984Z,12.87
2019-05-16T13:05:26.917Z,12.93
2019-05-16T13:07:54.187Z,12.98
2019-05-16T13:10:20.855Z,13.00
2019-05-16T13:12:47.721Z,13.11
2019-05-16T13:15:14.433Z,13.18
2019-05-16T13:17:41.120Z,13.30
2019-05-16T13:20:08.657Z,13.39
2019-05-16T13:22:38.463Z,13.37
2019-05-16T13:25:07.635Z,13.31
2019-05-16T13:27:37.031Z,13.14
2019-05-16T13:30:07.338Z,13.21
2019-05-16T13:32:37.408Z,13.04
2019-05-16T13:35:07.677Z,13.11
2019-05-16T13:37:34.528Z,13.26
2019-05-16T13:40:01.917Z,13.33
2019-05-16T13:42:29.097Z,13.47
2019-05-16T13:44:57.675Z,13.67
2019-05-16T13:47:26.840Z,13.47
2019-05-16T13:49:53.064Z,13.71
2019-05-16T13:52:19.750Z,13.88
2019-05-16T13:54:46.514Z,13.97
2019-05-16T13:57:13.189Z,13.92
2019-05-16T13:59:39.921Z,13.84
2019-05-16T14:02:08.080Z,13.79
2019-05-16T14:04:37.073Z,13.70
2019-05-16T14:07:03.613Z,13.57
2019-05-16T14:09:30.322Z,13.52
2019-05-16T14:11:57.020Z,13.42
2019-05-16T14:14:34.796Z,13.40
2019-05-16T14:16:52.500Z,13.49
2019-05-16T14:19:19.176Z,13.52
2019-05-16T14:21:47.795Z,13.52
2019-05-16T14:24:17.831Z,13.57
2019-05-16T14:26:46.485Z,13.77
2019-05-16T14:29:13.492Z,13.61
2019-05-16T14:31:40.279Z,13.52
2019-05-16T14:34:08.105Z,13.56
2019-05-16T14:36:37.276Z,13.58
2019-05-16T14:39:06.199Z,13.45
2019-05-16T14:41:33.280Z,13.47
2019-05-16T14:43:59.204Z,13.36
2019-05-16T14:46:27.461Z,13.24
2019-05-16T14:48:54.443Z,13.15
2019-05-16T14:51:21.127Z,13.00
2019-05-16T14:53:47.851Z,12.86
2019-05-16T14:56:14.613Z,12.85
2019-05-16T14:58:41.386Z,12.69
2019-05-16T15:03:36.375Z,12.74
2019-05-16T15:06:02.931Z,12.70
2019-05-16T15:08:29.679Z,12.61
2019-05-16T15:10:57.396Z,12.57
2019-05-16T15:15:50.327Z,12.57
2019-05-16T15:18:17.776Z,12.56
2019-05-16T15:20:46.979Z,12.45
2019-05-16T15:23:13.420Z,12.41
2019-05-16T15:25:40.126Z,12.44
2019-05-16T15:28:07.613Z,12.48
2019-05-16T15:30:39.105Z,12.50
2019-05-16T15:33:04.508Z,12.45
2019-05-16T15:35:31.267Z,12.42
2019-05-16T15:37:59.004Z,12.44
2019-05-16T15:40:26.823Z,12.44
2019-05-16T15:42:58.860Z,12.51
2019-05-16T15:45:37.959Z,12.34
2019-05-16T15:48:01.116Z,12.28
2019-05-16T15:50:28.313Z,12.24
2019-05-16T15:52:58.942Z,12.17
2019-05-16T15:55:27.018Z,12.06
2019-05-16T15:57:53.580Z,12.06
2019-05-16T16:02:50.181Z,11.94
2019-05-16T16:05:17.653Z,11.86
2019-05-16T16:07:44.873Z,11.84
2019-05-16T16:10:11.953Z,11.82
2019-05-16T16:12:38.916Z,11.72
2019-05-16T16:15:07.589Z,11.79
2019-05-16T16:17:37.684Z,11.74
2019-05-16T16:20:09.896Z,11.71
2019-05-16T16:22:33.592Z,11.66
2019-05-16T16:25:00.294Z,11.61
2019-05-16T16:27:27.554Z,11.57
2019-05-16T16:29:54.480Z,11.31
2019-05-16T16:32:21.191Z,11.21
2019-05-16T16:34:49.133Z,11.19
2019-05-16T16:37:16.841Z,11.28
2019-05-16T16:39:43.828Z,11.26
2019-05-16T17:12:12.550Z,10.83
2019-05-16T17:14:39.374Z,10.54
2019-05-16T17:17:07.094Z,10.54
2019-05-16T17:19:36.599Z,10.61
2019-05-16T17:22:14.686Z,10.68
2019-05-16T17:24:31.805Z,10.71
2019-05-16T17:26:58.630Z,10.70
2019-05-16T17:29:27.649Z,10.68
2019-05-16T17:32:00.564Z,10.68
2019-05-16T17:34:23.027Z,10.73
2019-05-16T17:36:49.891Z,10.68
2019-05-16T17:39:18.243Z,10.62
2019-05-16T17:41:52.006Z,10.65
2019-05-16T17:44:14.089Z,10.63
2019-05-16T17:46:41.150Z,10.62
2019-05-16T17:49:08.172Z,10.63
2019-05-16T17:51:36.720Z,10.60
2019-05-16T17:54:06.604Z,10.67
2019-05-16T17:56:33.391Z,10.68
2019-05-16T17:59:00.100Z,10.68
2019-05-16T18:01:27.437Z,10.67
2019-05-16T18:03:57.086Z,10.53
2019-05-16T18:06:23.489Z,10.55
2019-05-16T18:08:50.337Z,10.61
2019-05-16T18:11:17.791Z,10.67
2019-05-16T18:13:46.424Z,10.54
2019-05-16T18:16:13.494Z,10.58
2019-05-16T18:18:40.402Z,10.65
2019-05-16T18:21:07.395Z,10.60
2019-05-16T18:23:34.145Z,10.61
2019-05-16T18:26:02.161Z,10.42
2019-05-16T18:28:29.137Z,10.49
2019-05-16T18:30:56.671Z,10.50
2019-05-16T18:33:23.577Z,10.50
2019-05-16T18:35:50.342Z,10.44
2019-05-16T18:38:17.460Z,10.49
2019-05-16T18:40:44.203Z,10.48
2019-05-16T18:43:10.973Z,10.43
2019-05-16T18:45:37.728Z,10.46
2019-05-16T18:48:07.328Z,10.44
2019-05-16T18:50:34.315Z,10.46
2019-05-16T18:53:01.071Z,10.38
2019-05-16T18:55:27.866Z,10.31
2019-05-16T18:57:54.578Z,10.35
2019-05-16T19:00:21.449Z,10.23
2019-05-16T19:02:48.280Z,10.32
2019-05-16T19:05:17.219Z,10.33
2019-05-16T19:07:44.467Z,10.33
2019-05-16T19:10:11.655Z,10.22
2019-05-16T19:12:38.453Z,10.04
2019-05-16T19:15:08.219Z,10.15
2019-05-16T19:17:35.501Z,10.15
2019-05-16T19:20:06.642Z,10.15
2019-05-16T19:22:33.269Z,10.12
2019-05-16T19:25:01.051Z,10.07
2019-05-16T19:27:27.870Z,10.12
2019-05-16T19:29:56.800Z,10.12
2019-05-16T19:32:23.706Z,10.17
2019-05-16T19:34:50.449Z,10.19
2019-05-16T19:37:17.217Z,10.18
2019-05-16T19:39:46.194Z,10.16
2019-05-16T19:42:12.681Z,10.19
2019-05-16T19:44:39.464Z,9.93
2019-05-16T19:47:07.122Z,10.05
2019-05-16T19:49:34.142Z,10.06
2019-05-16T19:52:00.839Z,10.08
2019-05-16T19:54:27.882Z,10.07
2019-05-16T19:56:56.532Z,10.13
2019-05-16T19:59:23.560Z,10.10
2019-05-16T20:01:50.499Z,10.15
2019-05-16T20:04:18.423Z,10.18
2019-05-16T20:06:47.412Z,10.23
2019-05-16T20:09:16.501Z,10.21
2019-05-16T20:11:42.838Z,10.22
2019-05-16T20:14:09.785Z,10.27
2019-05-16T20:16:36.800Z,10.20
2019-05-16T20:19:03.582Z,10.16
2019-05-16T20:21:30.241Z,10.02
2019-05-16T20:23:58.157Z,10.05
2019-05-16T20:26:27.253Z,10.12
2019-05-16T20:28:53.903Z,10.15
2019-05-16T20:31:20.645Z,10.16
2019-05-16T20:33:47.313Z,10.19
2019-05-16T20:36:14.203Z,10.15
2019-05-16T20:38:41.078Z,10.12
2019-05-16T20:41:08.917Z,10.09
2019-05-16T20:43:36.803Z,10.18
2019-05-16T20:46:03.863Z,10.13
2019-05-16T20:48:30.600Z,10.13
2019-05-16T20:50:57.417Z,10.16
2019-05-16T20:53:26.958Z,10.14
2019-05-16T20:55:52.782Z,10.14
2019-05-16T20:58:19.534Z,10.20
2019-05-16T21:00:49.563Z,10.14
2019-05-16T21:03:16.295Z,10.10
2019-05-16T21:05:47.664Z,10.14
2019-05-16T21:08:13.013Z,10.07
2019-05-16T21:10:39.738Z,10.06
2019-05-16T21:13:07.236Z,10.06
2019-05-16T21:15:37.272Z,10.08
2019-05-16T21:18:04.181Z,10.12
2019-05-16T21:20:30.870Z,10.09
2019-05-16T21:22:57.633Z,10.07
2019-05-16T21:25:26.403Z,10.09
2019-05-16T21:27:53.030Z,10.08
2019-05-16T21:30:19.960Z,10.08
2019-05-16T21:32:47.152Z,10.00
2019-05-16T21:35:14.267Z,10.01
2019-05-16T21:37:41.101Z,10.04
2019-05-16T21:40:09.341Z,10.02
2019-05-16T21:42:37.034Z,9.87
2019-05-16T21:45:06.940Z,10.00
2019-05-16T21:47:36.981Z,9.99
2019-05-16T21:50:07.401Z,10.00
2019-05-16T21:52:36.431Z,10.01
2019-05-16T21:55:07.102Z,10.00
2019-05-16T21:57:33.982Z,10.06
2019-05-16T22:00:00.673Z,10.13
2019-05-16T22:02:27.334Z,10.07
2019-05-16T22:04:54.231Z,10.06
2019-05-16T22:07:32.860Z,10.07
2019-05-16T22:09:51.279Z,10.02
2019-05-16T22:12:18.203Z,10.00
2019-05-16T22:14:50.994Z,10.12
2019-05-16T22:17:17.829Z,10.12
2019-05-16T22:19:46.803Z,10.10
2019-05-16T22:22:13.486Z,10.10
2019-05-16T22:24:40.392Z,10.14
2019-05-16T22:27:08.184Z,10.10
2019-05-16T22:29:37.038Z,10.04
2019-05-16T22:32:03.647Z,10.15
2019-05-16T22:34:30.397Z,10.18
2019-05-16T22:36:57.401Z,10.18
2019-05-16T22:39:26.356Z,10.17
2019-05-16T22:41:53.357Z,10.17
2019-05-16T22:44:20.177Z,10.22
2019-05-16T22:46:46.926Z,10.25
2019-05-16T22:49:14.049Z,10.17
2019-05-16T22:51:40.806Z,10.23
2019-05-16T22:54:07.817Z,10.23
2019-05-16T22:56:34.643Z,10.21
2019-05-16T22:59:01.569Z,10.21
2019-05-16T23:01:28.407Z,10.23
2019-05-16T23:03:56.667Z,10.22
2019-05-16T23:06:23.563Z,10.23
2019-05-16T23:08:50.324Z,10.24
2019-05-16T23:11:17.014Z,10.27
2019-05-16T23:13:43.682Z,10.27
2019-05-16T23:16:10.544Z,10.24
2019-05-16T23:18:37.683Z,10.26
2019-05-16T23:21:06.405Z,10.20
2019-05-16T23:23:33.556Z,10.25
2019-05-16T23:26:00.351Z,10.24
2019-05-16T23:28:27.348Z,10.28
2019-05-16T23:30:54.359Z,10.29
2019-05-16T23:33:21.121Z,10.29
2019-05-16T23:35:47.777Z,10.29
2019-05-16T23:38:19.316Z,10.26
2019-05-16T23:40:43.134Z,10.35
2019-05-16T23:43:10.076Z,10.35
2019-05-16T23:45:37.480Z,10.38
2019-05-16T23:48:09.498Z,10.35
2019-05-16T23:50:33.207Z,10.33
2019-05-16T23:53:00.948Z,10.18
2019-05-16T23:55:27.871Z,10.30
2019-05-16T23:57:56.991Z,10.38
